Time;durP1;ratioP1;P1;durP2;ratioP2;P2;SDS_P1;SDS_P2;PMS_P1;PMS_P2;Temp;Humidity;BMP_temperature;BMP_pressure;BME280_temperature;BME280_humidity;BME280_pressure;Samples;Min_cycle;Max_cycle;Signal;HPM_P1;HPM_P2
2023/01/21 00:00:41;;;;;;;14.55;6.68;;;5.40;99.90;;;;;;10516694;28;20067;-64
2023/01/21 00:06:00;;;;;;;;;;;5.30;99.90;;;;;;10507264;28;20040;-62
2023/01/21 00:11:19;;;;;;;12.70;6.13;;;6.00;99.90;;;;;;10504662;28;20357;-62
2023/01/21 00:16:38;;;;;;;14.15;5.63;;;5.50;99.90;;;;;;10505596;28;20039;-62
2023/01/21 00:21:57;;;;;;;;;;;5.60;99.90;;;;;;10505224;28;20272;-62
2023/01/21 00:27:17;;;;;;;12.32;5.85;;;6.00;99.90;;;;;;10499852;28;19908;-63
2023/01/21 00:32:36;;;;;;;13.98;6.70;;;5.30;99.90;;;;;;10508041;28;20016;-68
2023/01/21 00:37:55;;;;;;;;;;;5.30;99.90;;;;;;10505617;28;20024;-66
2023/01/21 00:43:14;;;;;;;14.13;6.35;;;5.30;99.90;;;;;;10522605;28;19913;-62
2023/01/21 00:48:33;;;;;;;;;;;5.30;99.90;;;;;;10514315;28;20481;-63
2023/01/21 00:53:52;;;;;;;;;;;6.00;99.90;;;;;;10508331;28;19987;-64
2023/01/21 00:59:11;;;;;;;11.93;5.40;;;5.60;99.90;;;;;;10514474;28;19908;-69
2023/01/21 01:04:30;;;;;;;11.93;5.35;;;5.20;99.90;;;;;;10506796;28;20221;-63
2023/01/21 01:09:49;;;;;;;10.57;5.07;;;5.30;99.90;;;;;;10517839;28;20056;-63
2023/01/21 01:15:09;;;;;;;;;;;5.20;99.90;;;;;;10519190;28;20087;-67
2023/01/21 01:20:29;;;;;;;15.93;6.22;;;5.20;99.90;;;;;;10524658;28;19911;-63
2023/01/21 01:26:00;;;;;;;13.38;5.70;;;5.20;99.90;;;;;;10512850;28;20029;-63
2023/01/21 01:31:20;;;;;;;11.45;5.32;;;5.20;99.90;;;;;;10522888;28;20403;-64
2023/01/21 01:36:39;;;;;;;12.57;5.97;;;5.20;99.90;;;;;;10507076;28;20500;-62
2023/01/21 01:41:58;;;;;;;;;;;5.30;99.90;;;;;;10521943;28;20041;-62
2023/01/21 01:47:19;;;;;;;12.13;5.13;;;5.30;99.90;;;;;;10521161;28;19904;-63
2023/01/21 01:52:40;;;;;;;14.30;5.85;;;5.20;99.90;;;;;;10528278;28;20031;-63
2023/01/21 01:58:01;;;;;;;11.38;5.30;;;5.20;99.90;;;;;;10522650;28;20476;-68
2023/01/21 02:08:58;;;;;;;12.93;5.80;;;5.20;99.90;;;;;;10517485;28;20041;-63
2023/01/21 02:14:18;;;;;;;;;;;5.20;99.90;;;;;;10524131;28;20028;-66
2023/01/21 02:20:00;;;;;;;12.95;5.90;;;5.50;99.90;;;;;;10532198;28;20523;-62
2023/01/21 02:25:45;;;;;;;13.35;5.88;;;5.20;99.90;;;;;;10517387;28;20036;-62
2023/01/21 02:31:16;;;;;;;13.40;5.70;;;5.20;99.90;;;;;;10520472;28;20055;-63
2023/01/21 02:36:47;;;;;;;13.70;6.00;;;5.20;99.90;;;;;;10515181;28;20020;-66
2023/01/21 02:42:35;;;;;;;13.48;5.63;;;5.20;99.90;;;;;;10492988;28;20068;-62
2023/01/21 02:48:05;;;;;;;14.13;5.70;;;5.20;99.90;;;;;;10506482;28;20016;-66
2023/01/21 02:53:35;;;;;;;13.82;5.28;;;5.20;99.90;;;;;;10503983;28;20051;-63
2023/01/21 02:59:00;;;;;;;12.55;5.53;;;5.20;99.90;;;;;;10497096;28;20086;-64
2023/01/21 03:04:56;;;;;;;9.75;5.07;;;5.20;99.90;;;;;;10516569;28;20016;-62
2023/01/21 03:10:30;;;;;;;11.63;5.35;;;5.10;99.90;;;;;;10504208;28;20131;-63
2023/01/21 03:21:34;;;;;;;11.93;5.15;;;5.20;99.90;;;;;;10507853;28;20052;-67
2023/01/21 03:26:56;;;;;;;13.15;4.80;;;5.20;99.90;;;;;;10516168;28;20047;-63
2023/01/21 03:32:20;;;;;;;11.98;5.63;;;5.20;99.90;;;;;;10520516;28;20028;-63
2023/01/21 03:37:46;;;;;;;13.75;5.15;;;5.20;99.90;;;;;;10518837;28;20021;-62
2023/01/21 03:43:05;;;;;;;13.18;5.57;;;5.20;99.90;;;;;;10527357;28;20032;-67
2023/01/21 03:48:46;;;;;;;10.60;5.13;;;5.20;99.90;;;;;;10504134;28;20017;-65
2023/01/21 03:54:05;;;;;;;12.38;5.15;;;5.20;99.90;;;;;;10501574;28;20480;-65
2023/01/21 03:59:24;;;;;;;11.95;5.22;;;5.20;99.90;;;;;;10504180;28;20473;-65
2023/01/21 04:04:43;;;;;;;11.30;5.35;;;5.20;99.90;;;;;;10508411;28;20544;-62
2023/01/21 04:10:02;;;;;;;11.40;5.07;;;5.20;99.90;;;;;;10514069;28;20024;-62
2023/01/21 04:15:21;;;;;;;12.93;5.20;;;5.20;99.90;;;;;;10492122;28;20017;-68
2023/01/21 04:20:40;;;;;;;12.98;5.30;;;5.20;99.90;;;;;;10504533;28;20119;-62
2023/01/21 04:26:00;;;;;;;13.77;5.93;;;5.20;99.90;;;;;;10509759;28;20461;-66
2023/01/21 04:31:18;;;;;;;12.13;5.72;;;5.20;99.90;;;;;;10513436;28;20461;-62
2023/01/21 04:36:38;;;;;;;10.82;5.13;;;5.20;99.90;;;;;;10522301;28;20407;-65
2023/01/21 04:41:57;;;;;;;13.63;5.15;;;5.60;99.90;;;;;;10505863;28;20037;-68
2023/01/21 04:47:18;;;;;;;12.73;5.22;;;5.20;99.90;;;;;;10509250;28;20476;-62
2023/01/21 04:52:37;;;;;;;12.48;5.32;;;6.20;99.90;;;;;;10504570;28;20127;-66
2023/01/21 04:58:00;;;;;;;15.70;5.55;;;5.20;99.90;;;;;;10491718;28;20099;-63
2023/01/21 05:03:19;;;;;;;12.23;4.88;;;5.20;99.90;;;;;;10516829;28;20059;-62
2023/01/21 05:08:38;;;;;;;13.00;6.30;;;5.20;99.90;;;;;;10511572;28;20524;-64
2023/01/21 05:14:00;;;;;;;;;;;5.20;99.90;;;;;;10501938;28;20044;-63
2023/01/21 05:19:19;;;;;;;13.55;5.57;;;5.20;99.90;;;;;;10520511;28;20279;-66
2023/01/21 05:24:39;;;;;;;15.00;5.85;;;5.10;99.90;;;;;;10512292;28;20485;-67
2023/01/21 05:29:58;;;;;;;12.93;5.35;;;5.20;99.90;;;;;;10511613;28;20465;-62
2023/01/21 05:35:19;;;;;;;;;;;6.40;99.90;;;;;;10519240;28;20086;-63
2023/01/21 05:40:37;;;;;;;12.10;6.07;;;6.70;99.90;;;;;;10503339;28;19913;-68
2023/01/21 05:45:57;;;;;;;16.73;6.28;;;5.10;99.90;;;;;;10512056;28;20056;-62
2023/01/21 05:51:16;;;;;;;14.07;6.15;;;5.10;99.90;;;;;;10511300;28;20031;-62
2023/01/21 05:56:35;;;;;;;;;;;5.10;99.90;;;;;;10509420;28;20051;-65
2023/01/21 06:01:54;;;;;;;;;;;6.20;99.90;;;;;;10518003;28;19975;-62
2023/01/21 06:07:14;;;;;;;15.77;5.80;;;5.20;99.90;;;;;;10515033;28;20326;-62
2023/01/21 06:12:33;;;;;;;16.02;5.95;;;5.10;99.90;;;;;;10510191;28;20055;-64
2023/01/21 06:17:52;;;;;;;11.75;5.30;;;5.10;99.90;;;;;;10510429;28;20381;-63
2023/01/21 06:23:12;;;;;;;14.20;5.75;;;5.10;99.90;;;;;;10507955;28;20044;-63
2023/01/21 06:28:32;;;;;;;14.70;6.40;;;5.10;99.90;;;;;;10500464;28;20020;-67
2023/01/21 06:33:51;;;;;;;14.48;6.05;;;5.10;99.90;;;;;;10505538;28;20400;-64
2023/01/21 06:39:11;;;;;;;13.10;5.50;;;5.10;99.90;;;;;;10520942;28;20054;-66
2023/01/21 06:44:32;;;;;;;;;;;5.10;99.90;;;;;;10531607;28;20036;-62
2023/01/21 06:49:54;;;;;;;14.00;6.00;;;5.20;99.90;;;;;;10506446;28;19920;-62
2023/01/21 06:55:14;;;;;;;14.68;5.38;;;5.10;99.90;;;;;;10499651;28;20476;-66
2023/01/21 07:00:49;;;;;;;13.13;5.55;;;4.80;99.90;;;;;;10513897;28;20519;-64
2023/01/21 07:06:39;;;;;;;14.75;5.93;;;5.20;99.90;;;;;;10506382;28;21121;-71
2023/01/21 07:12:33;;;;;;;;;;;;;;;;;;;;;
2023/01/21 07:17:53;;;;;;;12.43;5.38;;;5.20;99.90;;;;;;10519071;22;20037;-65
2023/01/21 07:23:12;;;;;;;15.52;5.88;;;5.20;99.90;;;;;;10435031;28;20037;-65
2023/01/21 07:28:54;;;;;;;13.27;5.20;;;5.20;99.90;;;;;;11352087;22;20068;-68
2023/01/21 07:40:46;;;;;;;13.57;5.35;;;5.30;99.90;;;;;;10402216;28;20059;-69
2023/01/21 07:57:08;;;;;;;13.53;4.90;;;5.30;99.90;;;;;;10475350;22;20041;-65
2023/01/21 08:02:33;;;;;;;13.77;5.85;;;5.50;99.90;;;;;;10429724;28;20671;-65
2023/01/21 08:07:56;;;;;;;13.63;4.97;;;6.40;99.90;;;;;;10439370;28;20108;-68
2023/01/21 08:13:15;;;;;;;10.95;5.05;;;6.00;99.90;;;;;;10435772;28;20044;-67
2023/01/21 08:18:34;;;;;;;12.75;5.00;;;5.30;99.90;;;;;;10431093;28;20033;-66
2023/01/21 08:23:53;;;;;;;13.27;5.75;;;5.30;99.90;;;;;;10431063;28;20104;-67
2023/01/21 08:29:13;;;;;;;10.93;5.18;;;5.30;99.90;;;;;;10434402;28;20037;-65
2023/01/21 08:34:32;;;;;;;9.73;4.65;;;5.30;99.90;;;;;;10435105;28;20052;-65
2023/01/21 08:39:52;;;;;;;11.25;5.28;;;5.30;99.90;;;;;;10435255;28;20066;-65
2023/01/21 08:45:11;;;;;;;;;;;5.30;99.90;;;;;;10438432;28;20017;-65
2023/01/21 08:50:30;;;;;;;11.15;4.57;;;5.30;99.90;;;;;;10435897;28;20007;-65
2023/01/21 08:55:50;;;;;;;14.85;6.07;;;6.10;99.90;;;;;;10434771;28;20041;-68
2023/01/21 09:01:16;;;;;;;12.02;5.05;;;5.30;99.90;;;;;;10447233;28;20510;-68
2023/01/21 09:06:35;;;;;;;11.85;4.72;;;5.30;99.90;;;;;;10440764;28;20029;-69
2023/01/21 09:11:54;;;;;;;9.20;4.78;;;5.30;99.90;;;;;;10446605;28;20033;-68
2023/01/21 09:17:13;;;;;;;;;;;5.40;99.90;;;;;;10436384;28;20385;-69
2023/01/21 09:22:32;;;;;;;8.63;4.10;;;6.70;99.90;;;;;;10442929;28;20003;-69
2023/01/21 09:27:51;;;;;;;11.15;4.90;;;5.70;99.90;;;;;;10437330;28;20032;-68
2023/01/21 09:33:11;;;;;;;12.60;4.82;;;5.40;99.90;;;;;;10438766;28;20443;-65
2023/01/21 09:38:31;;;;;;;12.52;5.20;;;5.40;99.90;;;;;;10445974;28;20021;-65
2023/01/21 09:44:09;;;;;;;11.65;4.78;;;6.20;99.90;;;;;;10443833;28;20045;-69
2023/01/21 09:49:38;;;;;;;8.98;4.63;;;5.40;99.90;;;;;;10444287;28;20017;-63
2023/01/21 09:54:58;;;;;;;10.45;5.10;;;5.40;99.90;;;;;;10448094;28;20167;-65
2023/01/21 10:00:27;;;;;;;12.93;5.30;;;5.70;99.90;;;;;;10446429;28;20552;-68
2023/01/21 10:06:14;;;;;;;12.43;4.70;;;5.40;99.90;;;;;;10460107;28;20032;-67
2023/01/21 10:12:00;;;;;;;13.23;5.15;;;5.30;99.90;;;;;;10443879;28;20112;-68
2023/01/21 10:17:46;;;;;;;12.73;5.00;;;5.60;99.90;;;;;;10435487;28;20469;-66
2023/01/21 10:23:17;;;;;;;10.88;4.55;;;5.40;99.90;;;;;;10437102;28;20029;-68
2023/01/21 10:28:54;;;;;;;11.90;5.05;;;5.40;99.90;;;;;;10440872;28;20029;-66
2023/01/21 10:34:15;;;;;;;12.13;5.22;;;6.10;99.90;;;;;;10441025;28;20456;-68
2023/01/21 10:40:00;;;;;;;10.45;5.00;;;5.40;99.90;;;;;;10439474;28;20025;-66
2023/01/21 10:45:34;;;;;;;15.02;5.70;;;5.40;99.90;;;;;;10436404;28;20096;-65
2023/01/21 10:51:19;;;;;;;14.00;5.10;;;5.50;99.90;;;;;;10439081;28;20028;-67
2023/01/21 10:56:53;;;;;;;11.35;4.55;;;5.40;99.90;;;;;;10443377;28;20053;-65
2023/01/21 11:02:12;;;;;;;11.90;4.85;;;5.50;99.90;;;;;;10440200;28;20447;-66
2023/01/21 11:07:41;;;;;;;10.25;4.80;;;5.50;99.90;;;;;;10431434;28;20405;-64
2023/01/21 11:13:00;;;;;;;10.90;4.32;;;5.50;99.90;;;;;;10452377;28;20307;-64
2023/01/21 11:18:36;;;;;;;;;;;5.50;99.90;;;;;;10437914;28;20044;-63
2023/01/21 11:23:58;;;;;;;12.50;4.78;;;6.60;99.90;;;;;;10431919;28;19916;-65
2023/01/21 11:29:36;;;;;;;12.27;4.60;;;5.60;99.90;;;;;;10429821;28;20104;-66
2023/01/21 11:35:07;;;;;;;12.77;5.07;;;6.20;99.90;;;;;;10437151;28;20040;-69
2023/01/21 11:40:38;;;;;;;13.25;5.35;;;5.60;99.90;;;;;;10439101;28;20033;-67
2023/01/21 11:45:59;;;;;;;13.40;5.35;;;6.00;99.90;;;;;;10444769;28;20554;-62
2023/01/21 11:51:18;;;;;;;15.98;5.30;;;5.70;99.90;;;;;;10442695;28;20037;-65
2023/01/21 11:56:39;;;;;;;13.40;5.47;;;5.70;99.90;;;;;;10442024;28;20028;-66
2023/01/21 12:02:19;;;;;;;14.45;5.75;;;6.90;99.90;;;;;;10444785;28;20492;-66
2023/01/21 12:07:41;;;;;;;17.02;5.35;;;5.70;99.90;;;;;;10442653;28;20040;-65
2023/01/21 12:13:21;;;;;;;14.18;5.97;;;5.90;99.90;;;;;;10436976;28;20373;-65
2023/01/21 12:19:18;;;;;;;11.98;5.20;;;5.50;99.90;;;;;;10432514;28;20041;-65
2023/01/21 12:25:03;;;;;;;12.90;5.15;;;5.70;99.90;;;;;;10433211;28;20064;-69
2023/01/21 12:30:26;;;;;;;12.30;4.93;;;5.70;99.90;;;;;;10425720;28;20037;-65
2023/01/21 12:35:53;;;;;;;10.63;4.85;;;5.70;99.90;;;;;;10432079;28;20478;-65
2023/01/21 12:41:31;;;;;;;11.13;5.00;;;5.70;99.90;;;;;;10484543;22;20028;-66
2023/01/21 12:47:06;;;;;;;10.55;4.95;;;7.10;99.90;;;;;;10481379;28;20044;-71
2023/01/21 12:52:38;;;;;;;12.82;5.07;;;6.10;99.90;;;;;;10460841;28;20060;-66
2023/01/21 12:58:04;;;;;;;11.85;5.18;;;7.00;99.90;;;;;;10479708;28;20028;-68
2023/01/21 13:03:37;;;;;;;10.73;4.72;;;5.70;99.90;;;;;;10469385;28;20275;-67
2023/01/21 13:09:20;;;;;;;10.25;4.97;;;5.70;99.90;;;;;;10477029;28;20029;-69
2023/01/21 13:15:00;;;;;;;15.07;7.43;;;5.80;99.90;;;;;;10469505;28;20029;-68
2023/01/21 13:26:11;;;;;;;15.85;7.50;;;4.40;99.90;;;;;;10967603;22;20053;-74
2023/01/21 13:31:47;;;;;;;20.23;7.40;;;4.30;99.90;;;;;;10431453;28;20029;-74
2023/01/21 13:37:31;;;;;;;19.45;7.72;;;4.60;99.90;;;;;;10434563;28;20033;-73
2023/01/21 13:43:11;;;;;;;18.90;7.63;;;4.80;99.90;;;;;;10450072;28;20047;-73
2023/01/21 13:48:57;;;;;;;19.20;8.27;;;5.10;99.90;;;;;;10430738;28;20446;-74
2023/01/21 13:54:47;;;;;;;15.38;6.97;;;5.20;99.90;;;;;;10439933;28;20491;-75
2023/01/21 14:00:27;;;;;;;16.80;7.63;;;5.40;99.90;;;;;;10434467;28;20017;-75
2023/01/21 14:05:57;;;;;;;14.50;6.70;;;5.50;99.90;;;;;;10429805;28;20391;-74
2023/01/21 14:11:20;;;;;;;15.32;6.80;;;5.50;99.90;;;;;;10439270;28;20392;-74
2023/01/21 14:16:57;;;;;;;42.42;9.40;;;5.60;99.90;;;;;;10439730;28;20507;-75
2023/01/21 14:22:40;;;;;;;20.45;7.40;;;5.60;99.90;;;;;;10417556;28;20040;-75
2023/01/21 14:28:22;;;;;;;20.75;6.93;;;5.70;99.90;;;;;;10448650;22;20040;-74
2023/01/21 14:34:11;;;;;;;19.33;8.23;;;5.70;99.90;;;;;;10453318;28;20021;-73
2023/01/21 14:39:34;;;;;;;;;;;5.80;99.90;;;;;;10440721;28;20111;-72
2023/01/21 14:45:02;;;;;;;14.85;6.50;;;5.80;99.90;;;;;;10421208;28;20271;-74
2023/01/21 14:50:45;;;;;;;14.07;6.07;;;5.80;99.90;;;;;;10417872;28;20029;-74
2023/01/21 14:56:17;;;;;;;14.55;6.18;;;5.80;99.90;;;;;;10426310;28;20033;-72
2023/01/21 15:01:44;;;;;;;21.60;6.45;;;5.80;99.90;;;;;;10416860;28;20689;-72
2023/01/21 15:07:13;;;;;;;15.55;6.28;;;5.80;99.90;;;;;;10425901;28;20105;-73
2023/01/21 15:12:34;;;;;;;18.15;7.18;;;5.80;99.90;;;;;;10414651;28;20602;-72
2023/01/21 15:17:53;;;;;;;18.00;7.72;;;5.70;99.90;;;;;;10409140;28;20571;-71
2023/01/21 15:23:30;;;;;;;18.20;8.27;;;5.70;99.90;;;;;;10418313;28;20483;-73
2023/01/21 15:28:54;;;;;;;14.32;7.13;;;5.70;99.90;;;;;;10419484;28;20033;-74
2023/01/21 15:34:17;;;;;;;15.30;6.97;;;5.70;99.90;;;;;;10429524;28;20028;-73
2023/01/21 15:39:37;;;;;;;18.73;8.32;;;5.70;99.90;;;;;;10422026;28;20033;-73
2023/01/21 15:45:27;;;;;;;14.45;7.25;;;5.70;99.90;;;;;;10412622;28;20068;-73
2023/01/21 15:50:55;;;;;;;14.00;6.80;;;5.80;99.90;;;;;;10431757;28;20037;-72
2023/01/21 15:56:30;;;;;;;15.10;7.20;;;5.80;99.90;;;;;;10429877;28;20542;-72
2023/01/21 16:02:14;;;;;;;17.75;7.68;;;5.80;99.90;;;;;;10425487;28;20029;-73
2023/01/21 16:08:00;;;;;;;15.80;8.30;;;5.70;99.90;;;;;;10421020;28;20021;-74
2023/01/21 16:13:57;;;;;;;26.15;9.60;;;5.80;99.90;;;;;;10415346;28;20033;-72
2023/01/21 16:19:31;;;;;;;19.85;8.40;;;5.90;99.90;;;;;;10418720;28;20037;-72
2023/01/21 16:25:06;;;;;;;21.77;8.80;;;5.90;99.90;;;;;;10419444;28;20034;-72
2023/01/21 16:30:29;;;;;;;20.17;8.75;;;5.80;99.90;;;;;;10422261;28;20036;-72
2023/01/21 16:35:59;;;;;;;19.30;9.02;;;5.80;99.90;;;;;;10430499;28;20029;-73
2023/01/21 16:41:23;;;;;;;21.70;8.35;;;5.90;99.90;;;;;;10432698;28;20036;-72
2023/01/21 16:46:45;;;;;;;19.33;9.20;;;5.80;99.90;;;;;;10429937;28;20728;-74
2023/01/21 16:52:04;;;;;;;21.40;9.18;;;5.80;99.90;;;;;;10438084;28;20515;-73
2023/01/21 16:57:28;;;;;;;21.02;9.07;;;5.80;99.90;;;;;;10424317;28;20547;-72
2023/01/21 17:02:48;;;;;;;17.10;8.20;;;5.80;99.90;;;;;;10419745;28;20034;-72
2023/01/21 17:08:10;;;;;;;18.20;8.13;;;5.70;99.90;;;;;;10436657;28;20041;-73
2023/01/21 17:13:31;;;;;;;18.73;8.30;;;5.70;99.90;;;;;;10411052;28;20033;-72
2023/01/21 17:19:22;;;;;;;18.52;8.73;;;5.70;99.90;;;;;;10419064;28;20116;-72
2023/01/21 17:25:02;;;;;;;15.88;7.53;;;5.70;99.90;;;;;;10426865;28;20037;-71
2023/01/21 17:30:31;;;;;;;14.45;7.55;;;5.70;99.90;;;;;;10431864;28;20037;-72
2023/01/21 17:36:14;;;;;;;15.57;8.07;;;5.60;99.90;;;;;;10424392;28;20040;-74
2023/01/21 17:41:36;;;;;;;17.50;8.20;;;5.60;99.90;;;;;;10430021;28;20029;-73
2023/01/21 17:46:55;;;;;;;16.60;7.80;;;5.60;99.90;;;;;;10436210;28;20049;-73
2023/01/21 17:52:18;;;;;;;;;;;5.60;99.90;;;;;;10425497;28;20478;-74
2023/01/21 17:57:38;;;;;;;17.65;8.20;;;5.50;99.90;;;;;;10427015;28;20367;-74
2023/01/21 18:02:57;;;;;;;23.88;9.68;;;5.70;99.90;;;;;;10433786;28;20033;-74
2023/01/21 18:08:16;;;;;;;18.35;8.95;;;5.80;99.90;;;;;;10431109;28;20423;-75
2023/01/21 18:13:36;;;;;;;14.70;8.65;;;5.80;99.90;;;;;;10419945;28;20300;-76
2023/01/21 18:18:55;;;;;;;17.88;8.38;;;5.80;99.90;;;;;;10430095;28;20037;-74
2023/01/21 18:24:14;;;;;;;16.08;8.30;;;5.70;99.90;;;;;;10431854;28;20021;-73
2023/01/21 18:29:33;;;;;;;16.52;7.72;;;5.70;99.90;;;;;;10428342;28;20033;-73
2023/01/21 18:34:52;;;;;;;18.55;8.40;;;5.60;99.90;;;;;;10436746;28;20060;-73
2023/01/21 18:40:16;;;;;;;;;;;5.60;99.90;;;;;;10428822;28;20029;-73
2023/01/21 18:45:36;;;;;;;15.02;7.00;;;5.60;99.90;;;;;;10459618;22;20390;-73
2023/01/21 18:50:55;;;;;;;14.88;7.82;;;5.60;99.90;;;;;;10465439;28;20025;-73
2023/01/21 18:56:14;;;;;;;15.85;7.45;;;5.50;99.90;;;;;;10429939;28;20052;-73
2023/01/21 19:01:34;;;;;;;15.85;7.95;;;5.50;99.90;;;;;;10433160;28;20482;-74
2023/01/21 19:06:54;;;;;;;15.20;7.55;;;5.50;99.90;;;;;;10421310;28;20123;-74
2023/01/21 19:12:16;;;;;;;14.48;7.43;;;5.50;99.90;;;;;;10444749;28;20026;-74
2023/01/21 19:17:37;;;;;;;13.40;6.90;;;5.40;99.90;;;;;;10452765;28;20252;-74
2023/01/21 19:22:56;;;;;;;13.10;7.07;;;5.40;99.90;;;;;;10455148;28;20354;-74
2023/01/21 19:28:15;;;;;;;14.45;7.05;;;5.40;99.90;;;;;;10436573;28;20036;-74
2023/01/21 19:33:34;;;;;;;;;;;5.40;99.90;;;;;;10443136;28;20033;-74
2023/01/21 19:38:55;;;;;;;13.40;7.03;;;5.70;99.90;;;;;;10427678;28;19920;-75
2023/01/21 19:44:14;;;;;;;14.05;7.63;;;5.30;99.90;;;;;;10430546;28;20033;-75
2023/01/21 19:49:33;;;;;;;15.65;7.40;;;5.30;99.90;;;;;;10417605;28;20021;-75
2023/01/21 19:54:52;;;;;;;;;;;5.30;99.90;;;;;;10423032;28;20033;-75
2023/01/21 20:00:20;;;;;;;12.05;6.30;;;5.40;99.90;;;;;;10421471;28;19909;-74
2023/01/21 20:05:39;;;;;;;15.82;7.85;;;5.30;99.90;;;;;;10419500;28;20032;-74
2023/01/21 20:10:59;;;;;;;13.57;7.35;;;5.30;99.90;;;;;;10418304;28;20045;-74
2023/01/21 20:16:22;;;;;;;12.77;7.15;;;5.20;99.90;;;;;;10423900;28;20029;-74
2023/01/21 20:21:42;;;;;;;15.57;7.80;;;5.20;99.90;;;;;;10418024;28;20026;-74
2023/01/21 20:27:03;;;;;;;13.52;7.25;;;5.20;99.90;;;;;;10433058;28;20028;-74
2023/01/21 20:32:23;;;;;;;15.05;7.72;;;5.20;99.90;;;;;;10424389;28;20037;-74
2023/01/21 20:37:44;;;;;;;;;;;5.20;99.90;;;;;;10433058;28;20245;-74
2023/01/21 20:43:03;;;;;;;13.65;7.32;;;5.20;99.90;;;;;;10428363;28;19913;-74
2023/01/21 20:48:26;;;;;;;16.10;7.45;;;5.20;99.90;;;;;;10429143;28;20021;-74
2023/01/21 20:53:45;;;;;;;11.98;6.72;;;5.20;99.90;;;;;;10438805;28;20044;-74
2023/01/21 20:59:04;;;;;;;11.90;7.15;;;5.20;99.90;;;;;;10429227;28;20041;-74
2023/01/21 21:04:24;;;;;;;12.95;6.90;;;5.10;99.90;;;;;;10435808;28;20487;-74
2023/01/21 21:09:43;;;;;;;11.40;6.80;;;5.10;99.90;;;;;;10438726;28;20475;-74
2023/01/21 21:15:03;;;;;;;11.57;6.57;;;5.10;99.90;;;;;;10429701;28;20033;-74
2023/01/21 21:20:29;;;;;;;11.30;6.57;;;5.10;99.90;;;;;;10438157;28;20120;-74
2023/01/21 21:25:49;;;;;;;12.02;6.82;;;5.10;99.90;;;;;;10443597;28;20021;-74
2023/01/21 21:31:11;;;;;;;11.38;6.80;;;5.10;99.90;;;;;;10433370;28;20033;-74
2023/01/21 21:36:30;;;;;;;13.65;7.03;;;5.10;99.90;;;;;;10443687;28;20337;-74
2023/01/21 21:53:06;;;;;;;11.40;6.20;;;5.00;99.90;;;;;;10431826;28;20661;-74
2023/01/21 21:58:26;;;;;;;10.68;6.05;;;5.00;99.90;;;;;;10435589;28;20292;-74
2023/01/21 22:03:45;;;;;;;10.15;6.20;;;5.00;99.90;;;;;;10432219;28;20033;-74
2023/01/21 22:09:05;;;;;;;10.73;5.70;;;5.10;99.90;;;;;;10431204;28;20048;-73
2023/01/21 22:14:24;;;;;;;11.25;6.38;;;5.00;99.90;;;;;;10432164;28;20037;-73
2023/01/21 22:19:43;;;;;;;;;;;5.00;99.90;;;;;;10445470;28;20467;-74
2023/01/21 22:25:03;;;;;;;10.63;5.63;;;5.00;99.90;;;;;;10436892;28;20351;-73
2023/01/21 22:30:23;;;;;;;10.70;5.97;;;5.00;99.90;;;;;;10435072;28;20036;-74
2023/01/21 22:35:44;;;;;;;8.90;6.00;;;5.00;99.90;;;;;;10435848;28;20021;-74
2023/01/21 22:41:04;;;;;;;9.98;5.53;;;5.00;99.90;;;;;;10424295;28;20037;-74
2023/01/21 22:46:25;;;;;;;10.55;5.75;;;5.00;99.90;;;;;;10426348;28;20456;-74
2023/01/21 22:51:45;;;;;;;8.18;5.57;;;5.00;99.90;;;;;;10427376;28;20037;-74
2023/01/21 22:57:04;;;;;;;10.43;5.70;;;5.00;99.90;;;;;;10420402;28;20029;-74
2023/01/21 23:02:24;;;;;;;;;;;5.00;99.90;;;;;;10423450;28;20057;-74
2023/01/21 23:07:43;;;;;;;8.88;5.05;;;5.00;99.90;;;;;;10425800;28;19908;-74
2023/01/21 23:13:02;;;;;;;;;;;4.90;99.90;;;;;;10428499;28;20036;-74
2023/01/21 23:18:23;;;;;;;9.30;5.00;;;5.00;99.90;;;;;;10424851;28;19905;-74
2023/01/21 23:23:42;;;;;;;9.18;5.35;;;4.90;99.90;;;;;;10421002;28;20033;-74
2023/01/21 23:29:02;;;;;;;7.10;4.70;;;4.90;99.90;;;;;;10419255;28;20479;-74
2023/01/21 23:34:21;;;;;;;9.15;4.97;;;4.90;99.90;;;;;;10428138;28;20530;-73
2023/01/21 23:39:41;;;;;;;9.52;5.65;;;4.90;99.90;;;;;;10433465;28;20427;-74
2023/01/21 23:45:01;;;;;;;8.35;4.65;;;4.90;99.90;;;;;;10418872;28;20025;-74
2023/01/21 23:50:20;;;;;;;10.27;5.25;;;4.90;99.90;;;;;;10423753;28;20021;-73
2023/01/21 23:55:39;;;;;;;7.57;5.05;;;4.90;99.90;;;;;;10420397;28;20206;-73
